Time;durP1;ratioP1;P1;durP2;ratioP2;P2;SDS_P1;SDS_P2;PMS_P1;PMS_P2;Temp;Humidity;BMP_temperature;BMP_pressure;BME280_temperature;BME280_humidity;BME280_pressure;Samples;Min_cycle;Max_cycle;Signal;HPM_P1;HPM_P2
2021/04/25 00:00:49;;;;;;;8.18;4.65;;;8.20;66.80;;;;;;5060518;28;20094;-66
2021/04/25 00:03:15;;;;;;;12.07;5.07;;;8.20;67.20;;;;;;5067169;28;20036;-64
2021/04/25 00:05:40;;;;;;;8.93;4.75;;;8.10;67.40;;;;;;5057193;28;20440;-64
2021/04/25 00:08:06;;;;;;;11.13;4.78;;;8.10;67.60;;;;;;5053288;28;20048;-64
2021/04/25 00:10:32;;;;;;;7.22;4.07;;;8.00;68.10;;;;;;5051079;28;20493;-67
2021/04/25 00:12:57;;;;;;;7.78;3.83;;;8.00;68.60;;;;;;5059627;28;20546;-68
2021/04/25 00:15:25;;;;;;;10.07;4.82;;;7.90;68.80;;;;;;5053126;28;20025;-64
2021/04/25 00:17:51;;;;;;;9.52;4.50;;;7.90;69.30;;;;;;5065890;28;20016;-62
2021/04/25 00:20:19;;;;;;;9.13;4.25;;;7.80;69.60;;;;;;5054188;28;20060;-72
2021/04/25 00:22:45;;;;;;;9.48;4.45;;;7.80;69.90;;;;;;5051347;28;20108;-64
2021/04/25 00:25:12;;;;;;;7.20;4.30;;;7.70;70.10;;;;;;5057888;28;20078;-64
2021/04/25 00:27:39;;;;;;;8.63;4.10;;;7.70;70.40;;;;;;5070197;28;20173;-64
2021/04/25 00:30:07;;;;;;;7.72;4.50;;;7.60;70.70;;;;;;5066781;28;20029;-64
2021/04/25 00:32:33;;;;;;;9.93;4.53;;;7.50;70.90;;;;;;5059007;28;20476;-64
2021/04/25 00:34:59;;;;;;;8.57;4.70;;;7.50;71.50;;;;;;5051819;28;20167;-63
2021/04/25 00:37:24;;;;;;;7.00;4.00;;;7.50;72.10;;;;;;5054782;28;20040;-64
2021/04/25 00:39:50;;;;;;;9.35;4.35;;;7.40;72.10;;;;;;5071012;28;20204;-64
2021/04/25 00:42:17;;;;;;;11.93;4.60;;;7.40;72.60;;;;;;5068695;28;20058;-63
2021/04/25 00:44:46;;;;;;;10.88;4.68;;;7.30;72.80;;;;;;5064258;28;20556;-64
2021/04/25 00:47:12;;;;;;;7.43;4.97;;;7.30;73.10;;;;;;5062715;28;20037;-64
2021/04/25 00:49:38;;;;;;;8.00;5.07;;;7.30;73.30;;;;;;5054184;28;20016;-64
2021/04/25 00:52:06;;;;;;;9.77;4.55;;;7.20;73.50;;;;;;5069678;28;20028;-64
2021/04/25 00:54:32;;;;;;;6.88;4.45;;;7.20;73.80;;;;;;5069942;28;20025;-64
2021/04/25 00:56:59;;;;;;;10.40;4.50;;;7.20;74.00;;;;;;5069309;28;20116;-64
2021/04/25 00:59:26;;;;;;;9.98;4.38;;;7.10;74.50;;;;;;5070324;28;20047;-64
2021/04/25 01:01:53;;;;;;;7.45;4.28;;;7.10;74.80;;;;;;5059702;28;20025;-65
2021/04/25 01:04:19;;;;;;;8.55;4.25;;;7.10;75.00;;;;;;5070656;28;20097;-70
2021/04/25 01:06:45;;;;;;;8.50;4.93;;;7.10;75.30;;;;;;5070118;28;20021;-64
2021/04/25 01:09:10;;;;;;;8.13;4.22;;;7.00;75.50;;;;;;5053757;28;20040;-64
2021/04/25 01:11:36;;;;;;;9.98;4.70;;;7.00;75.80;;;;;;5050380;28;20569;-64
2021/04/25 01:14:02;;;;;;;7.18;4.38;;;6.90;76.30;;;;;;5059058;28;20064;-64
2021/04/25 01:16:30;;;;;;;11.48;4.78;;;6.80;76.50;;;;;;5069729;28;20397;-63
2021/04/25 01:18:56;;;;;;;11.15;5.15;;;6.80;77.00;;;;;;5052906;28;20104;-64
2021/04/25 01:21:22;;;;;;;9.00;4.53;;;6.80;77.20;;;;;;5065515;28;20115;-67
2021/04/25 01:23:48;;;;;;;8.90;4.40;;;6.80;77.20;;;;;;5060150;28;20108;-64
2021/04/25 01:26:15;;;;;;;8.32;4.45;;;6.80;77.40;;;;;;5055862;28;20025;-64
2021/04/25 01:28:41;;;;;;;8.38;4.22;;;6.70;77.60;;;;;;5067656;28;20253;-64
2021/04/25 01:31:06;;;;;;;8.85;4.28;;;6.70;77.80;;;;;;5070499;28;20028;-65
2021/04/25 01:33:33;;;;;;;7.72;4.50;;;6.70;78.10;;;;;;5053117;28;20425;-64
2021/04/25 01:36:00;;;;;;;9.25;4.45;;;6.60;78.20;;;;;;5062369;28;20474;-64
2021/04/25 01:38:26;;;;;;;7.70;4.60;;;6.60;78.50;;;;;;5061868;28;20116;-64
2021/04/25 01:40:52;;;;;;;11.88;4.80;;;6.60;78.70;;;;;;5051184;28;20569;-64
2021/04/25 01:43:17;;;;;;;10.98;4.65;;;6.60;79.60;;;;;;5051003;28;20391;-65
2021/04/25 01:45:43;;;;;;;7.70;4.28;;;6.50;79.80;;;;;;5067399;28;20070;-64
2021/04/25 01:48:09;;;;;;;9.98;5.28;;;6.50;79.90;;;;;;5065656;28;20040;-64
2021/04/25 01:50:36;;;;;;;10.00;5.32;;;6.40;80.70;;;;;;5063506;28;20021;-64
2021/04/25 01:53:02;;;;;;;8.68;4.25;;;6.40;81.00;;;;;;5054627;28;20512;-64
2021/04/25 01:55:31;;;;;;;9.50;4.68;;;6.40;80.80;;;;;;5053553;28;20029;-64
2021/04/25 01:57:58;;;;;;;6.93;4.82;;;6.40;80.90;;;;;;5066582;28;20040;-64
2021/04/25 02:00:34;;;;;;;10.57;4.68;;;6.30;80.80;;;;;;5061175;28;20032;-64
2021/04/25 02:03:01;;;;;;;10.65;4.95;;;6.30;81.10;;;;;;5063399;28;20025;-63
2021/04/25 02:05:27;;;;;;;7.53;4.47;;;6.30;81.30;;;;;;5051558;28;20033;-64
2021/04/25 02:07:53;;;;;;;6.28;3.88;;;6.20;81.60;;;;;;5072456;28;20466;-64
2021/04/25 02:10:20;;;;;;;10.52;5.10;;;6.20;81.60;;;;;;5058526;28;20036;-70
2021/04/25 02:12:46;;;;;;;9.23;4.97;;;6.20;81.90;;;;;;5061986;28;20060;-65
2021/04/25 02:15:13;;;;;;;9.60;4.68;;;6.20;82.30;;;;;;5059913;28;20024;-64
2021/04/25 02:17:42;;;;;;;7.53;4.70;;;6.20;82.70;;;;;;5071633;28;20052;-63
2021/04/25 02:20:10;;;;;;;8.90;4.65;;;6.10;83.30;;;;;;5054051;28;20071;-64
2021/04/25 02:22:35;;;;;;;9.00;4.75;;;6.10;83.20;;;;;;5065167;28;20043;-64
2021/04/25 02:25:01;;;;;;;6.43;4.35;;;6.10;83.10;;;;;;5062373;28;20493;-64
2021/04/25 02:27:27;;;;;;;11.82;5.63;;;6.00;83.20;;;;;;5058661;28;20127;-64
2021/04/25 02:29:53;;;;;;;12.52;5.18;;;6.00;83.70;;;;;;5072990;28;20029;-65
2021/04/25 02:32:18;;;;;;;8.55;5.05;;;6.00;83.80;;;;;;5053754;28;20090;-64
2021/04/25 02:34:44;;;;;;;7.25;4.40;;;6.00;83.70;;;;;;5067695;28;20475;-64
2021/04/25 02:37:10;;;;;;;10.48;4.35;;;6.00;83.80;;;;;;5063625;28;20025;-64
2021/04/25 02:39:35;;;;;;;10.77;5.43;;;5.90;84.00;;;;;;5056716;28;20033;-62
2021/04/25 02:42:01;;;;;;;10.43;4.97;;;5.90;84.60;;;;;;5073139;28;20028;-64
2021/04/25 02:44:27;;;;;;;7.10;4.63;;;5.90;84.80;;;;;;5053722;28;20382;-64
2021/04/25 02:46:52;;;;;;;9.93;5.00;;;5.80;85.10;;;;;;5061750;28;20025;-64
2021/04/25 02:49:18;;;;;;;8.30;4.75;;;5.80;85.40;;;;;;5060577;28;20029;-64
2021/04/25 02:51:44;;;;;;;6.88;4.70;;;5.80;85.70;;;;;;5070105;28;20029;-63
2021/04/25 02:54:10;;;;;;;8.40;4.80;;;5.70;86.10;;;;;;5066096;28;20458;-63
2021/04/25 02:56:35;;;;;;;11.07;5.30;;;5.70;86.50;;;;;;5052573;28;20029;-64
2021/04/25 02:59:01;;;;;;;8.35;4.97;;;5.70;86.80;;;;;;5066871;28;20151;-64
2021/04/25 03:01:27;;;;;;;8.98;5.22;;;5.70;87.00;;;;;;5070471;28;20125;-64
2021/04/25 03:03:53;;;;;;;10.98;5.40;;;5.60;87.10;;;;;;5066644;28;20025;-64
2021/04/25 03:06:19;;;;;;;8.07;4.63;;;5.60;87.50;;;;;;5055682;28;20035;-64
2021/04/25 03:08:44;;;;;;;12.30;5.22;;;5.60;87.60;;;;;;5052409;28;20750;-64
2021/04/25 03:11:10;;;;;;;10.27;5.47;;;5.60;87.60;;;;;;5061616;28;20082;-64
2021/04/25 03:13:36;;;;;;;8.85;5.13;;;5.60;88.30;;;;;;5071059;28;20478;-67
2021/04/25 03:16:01;;;;;;;9.05;5.53;;;5.60;88.40;;;;;;5060295;28;20020;-64
2021/04/25 03:18:29;;;;;;;8.90;5.03;;;5.60;89.20;;;;;;5053039;28;20115;-64
2021/04/25 03:20:55;;;;;;;12.02;5.75;;;5.50;89.00;;;;;;5052940;28;20075;-64
2021/04/25 03:23:22;;;;;;;8.90;5.30;;;5.50;89.10;;;;;;5065264;28;20081;-71
2021/04/25 03:25:47;;;;;;;13.13;5.72;;;5.50;89.10;;;;;;5063931;28;20028;-64
2021/04/25 03:28:13;;;;;;;11.02;5.45;;;5.50;89.10;;;;;;5055390;28;20040;-63
2021/04/25 03:30:39;;;;;;;9.70;5.30;;;5.50;89.40;;;;;;5071645;28;20037;-64
2021/04/25 03:33:05;;;;;;;8.43;5.47;;;5.40;89.80;;;;;;5071651;28;20067;-67
2021/04/25 03:35:31;;;;;;;10.20;5.15;;;5.40;89.80;;;;;;5063015;28;20054;-64
2021/04/25 03:37:57;;;;;;;8.95;5.32;;;5.40;89.90;;;;;;5072316;28;20028;-64
2021/04/25 03:40:22;;;;;;;7.55;4.57;;;5.30;90.10;;;;;;5070866;28;20029;-70
2021/04/25 03:42:49;;;;;;;11.48;5.53;;;5.30;90.40;;;;;;5052044;28;20154;-64
2021/04/25 03:45:16;;;;;;;7.38;4.70;;;5.30;90.50;;;;;;5052367;28;20029;-64
2021/04/25 03:47:43;;;;;;;8.52;4.95;;;5.30;90.60;;;;;;5057038;28;20516;-63
2021/04/25 03:50:10;;;;;;;8.82;4.85;;;5.20;90.80;;;;;;5071763;28;20042;-64
2021/04/25 03:52:36;;;;;;;12.63;5.60;;;5.20;91.20;;;;;;5071074;28;20056;-64
2021/04/25 03:55:03;;;;;;;9.68;5.53;;;5.10;91.50;;;;;;5052567;28;20109;-64
2021/04/25 03:57:29;;;;;;;11.75;5.55;;;5.10;91.60;;;;;;5051281;28;20111;-65
2021/04/25 03:59:54;;;;;;;10.18;5.95;;;5.10;91.90;;;;;;5060174;28;20103;-66
2021/04/25 04:02:20;;;;;;;7.50;5.18;;;5.00;92.00;;;;;;5071778;28;20051;-64
2021/04/25 04:04:46;;;;;;;8.30;5.50;;;5.00;92.10;;;;;;5070624;28;20107;-65
2021/04/25 04:07:11;;;;;;;11.45;5.57;;;5.00;92.00;;;;;;5054516;28;20126;-66
2021/04/25 04:09:39;;;;;;;10.25;5.40;;;5.00;92.20;;;;;;5051108;28;20033;-64
2021/04/25 04:12:05;;;;;;;9.48;5.32;;;5.00;91.90;;;;;;5058104;28;20017;-64
2021/04/25 04:14:31;;;;;;;8.25;5.22;;;4.90;91.90;;;;;;5070209;28;20465;-64
2021/04/25 04:16:56;;;;;;;10.00;5.40;;;4.90;91.70;;;;;;5060567;28;20031;-64
2021/04/25 04:19:22;;;;;;;11.13;5.57;;;4.90;91.80;;;;;;5066106;28;20035;-69
2021/04/25 04:21:47;;;;;;;8.15;5.05;;;4.90;91.50;;;;;;5070577;28;20020;-64
2021/04/25 04:24:13;;;;;;;9.57;5.22;;;4.90;91.40;;;;;;5067890;28;20458;-64
2021/04/25 04:26:39;;;;;;;10.70;5.25;;;4.90;91.70;;;;;;5051040;28;20025;-64
2021/04/25 04:29:04;;;;;;;11.35;6.30;;;4.90;92.00;;;;;;5051697;28;20033;-64
2021/04/25 04:31:30;;;;;;;11.60;6.90;;;4.90;92.20;;;;;;5062155;28;20070;-64
2021/04/25 04:33:55;;;;;;;8.77;5.35;;;4.90;92.30;;;;;;5071248;28;20351;-64
2021/04/25 04:36:21;;;;;;;10.88;5.82;;;4.90;92.70;;;;;;5062190;28;20106;-62
2021/04/25 04:38:46;;;;;;;12.13;6.55;;;4.90;92.90;;;;;;5070212;28;20032;-64
2021/04/25 04:41:12;;;;;;;13.52;6.43;;;5.00;92.80;;;;;;5064271;28;20033;-64
2021/04/25 04:43:38;;;;;;;10.23;5.97;;;5.00;92.70;;;;;;5052614;28;20025;-64
2021/04/25 04:46:03;;;;;;;9.80;6.30;;;5.00;91.80;;;;;;5051619;28;20108;-64
2021/04/25 04:48:29;;;;;;;10.40;5.95;;;5.10;91.30;;;;;;5053918;28;20033;-64
2021/04/25 04:50:55;;;;;;;12.63;5.88;;;5.20;91.20;;;;;;5069574;28;20081;-63
2021/04/25 04:53:21;;;;;;;9.93;6.03;;;5.20;91.10;;;;;;5071013;28;20021;-64
2021/04/25 04:55:46;;;;;;;11.13;6.00;;;5.30;90.60;;;;;;5062307;28;20041;-64
2021/04/25 04:58:12;;;;;;;11.48;6.80;;;5.30;90.40;;;;;;5054108;28;20119;-64
2021/04/25 05:00:38;;;;;;;10.32;5.45;;;5.40;90.20;;;;;;5070267;28;20109;-64
2021/04/25 05:03:04;;;;;;;7.93;5.35;;;5.40;89.90;;;;;;5054044;28;20476;-64
2021/04/25 05:05:29;;;;;;;12.45;7.13;;;5.40;89.70;;;;;;5053388;28;20036;-64
2021/04/25 05:07:55;;;;;;;11.80;6.22;;;5.50;89.30;;;;;;5064140;28;20048;-64
2021/04/25 05:10:21;;;;;;;10.65;5.63;;;5.60;88.80;;;;;;5050997;28;20122;-63
2021/04/25 05:12:46;;;;;;;9.48;5.57;;;5.60;88.20;;;;;;5050402;28;20017;-68
2021/04/25 05:15:12;;;;;;;9.95;5.70;;;5.70;87.90;;;;;;5063427;28;20028;-65
2021/04/25 05:17:38;;;;;;;12.25;6.68;;;5.70;87.50;;;;;;5051671;28;20036;-66
2021/04/25 05:20:04;;;;;;;11.52;6.30;;;5.80;87.00;;;;;;5055191;28;20028;-65
2021/04/25 05:22:33;;;;;;;11.43;6.32;;;5.90;86.50;;;;;;5069492;28;20019;-68
2021/04/25 05:24:59;;;;;;;10.73;6.03;;;5.90;85.70;;;;;;5070500;28;20028;-66
2021/04/25 05:27:24;;;;;;;9.15;5.80;;;6.00;85.00;;;;;;5056866;28;20086;-68
2021/04/25 05:29:50;;;;;;;14.57;6.32;;;6.10;84.60;;;;;;5050677;28;20029;-68
2021/04/25 05:32:16;;;;;;;9.93;6.15;;;6.10;84.60;;;;;;5059050;28;20036;-66
2021/04/25 05:34:42;;;;;;;12.13;6.10;;;6.20;84.10;;;;;;5050269;28;20501;-68
2021/04/25 05:37:08;;;;;;;9.95;6.60;;;6.30;83.30;;;;;;5064141;28;20052;-67
2021/04/25 05:39:33;;;;;;;14.95;7.25;;;6.40;82.20;;;;;;5058288;28;20060;-68
2021/04/25 05:41:59;;;;;;;19.13;7.40;;;6.60;80.50;;;;;;5051079;28;20471;-66
2021/04/25 05:44:27;;;;;;;16.52;7.00;;;6.70;80.10;;;;;;5055617;28;20538;-71
2021/04/25 05:46:54;;;;;;;14.20;7.07;;;6.80;79.50;;;;;;5059083;28;20119;-66
2021/04/25 05:49:20;;;;;;;12.30;7.05;;;6.80;79.50;;;;;;5073218;28;20040;-68
2021/04/25 05:51:50;;;;;;;12.35;6.95;;;6.90;79.30;;;;;;5073453;28;20031;-66
2021/04/25 05:54:16;;;;;;;12.70;6.67;;;7.00;78.70;;;;;;5072062;28;20037;-67
2021/04/25 05:56:44;;;;;;;11.68;6.53;;;7.00;78.20;;;;;;5068713;28;20025;-64
2021/04/25 05:59:10;;;;;;;9.85;6.57;;;7.00;78.70;;;;;;5055587;28;20056;-67
2021/04/25 06:01:37;;;;;;;14.50;7.93;;;7.10;77.90;;;;;;5053717;28;20435;-66
2021/04/25 06:04:08;;;;;;;13.68;7.18;;;7.20;77.70;;;;;;5055467;28;20108;-67
2021/04/25 06:06:37;;;;;;;29.05;9.32;;;7.20;78.00;;;;;;5053455;28;20097;-66
2021/04/25 06:09:03;;;;;;;13.30;7.68;;;7.30;77.30;;;;;;5054326;28;20115;-65
2021/04/25 06:11:29;;;;;;;14.30;7.82;;;7.40;76.00;;;;;;5054856;28;20119;-71
2021/04/25 06:13:54;;;;;;;13.82;7.88;;;7.50;75.50;;;;;;5054191;28;20542;-68
2021/04/25 06:16:20;;;;;;;17.92;7.45;;;7.50;75.50;;;;;;5057866;28;20032;-67
2021/04/25 06:18:46;;;;;;;15.95;7.95;;;7.60;75.50;;;;;;5060147;28;20036;-70
2021/04/25 06:21:13;;;;;;;14.80;7.38;;;7.60;76.20;;;;;;5060620;28;20101;-68
2021/04/25 06:23:39;;;;;;;14.65;7.75;;;7.80;75.20;;;;;;5062491;28;20052;-64
2021/04/25 06:26:05;;;;;;;14.20;7.53;;;7.80;75.60;;;;;;5060526;28;20478;-65
2021/04/25 06:28:31;;;;;;;16.40;7.78;;;7.80;75.50;;;;;;5060560;28;20044;-70
2021/04/25 06:30:59;;;;;;;15.13;8.18;;;7.90;74.80;;;;;;5061520;28;20489;-67
2021/04/25 06:33:25;;;;;;;15.77;8.43;;;8.00;74.50;;;;;;5061731;28;20063;-67
2021/04/25 06:35:52;;;;;;;13.25;7.30;;;8.10;74.00;;;;;;5059000;28;20550;-64
2021/04/25 06:38:18;;;;;;;17.90;7.78;;;8.10;73.90;;;;;;5062253;28;20082;-64
2021/04/25 06:40:44;;;;;;;14.48;8.60;;;8.10;74.00;;;;;;5070429;28;20046;-67
2021/04/25 06:43:10;;;;;;;21.67;9.32;;;8.20;74.10;;;;;;5073778;28;20033;-66
2021/04/25 06:45:36;;;;;;;16.52;9.02;;;8.30;73.30;;;;;;5063496;28;20098;-66
2021/04/25 06:48:03;;;;;;;18.60;9.48;;;8.40;72.30;;;;;;5057628;28;20060;-66
2021/04/25 06:50:29;;;;;;;15.63;8.68;;;8.50;72.00;;;;;;5060860;28;20043;-70
2021/04/25 06:52:55;;;;;;;13.45;8.57;;;8.50;72.10;;;;;;5063632;28;20155;-64
2021/04/25 06:55:23;;;;;;;14.43;8.88;;;8.60;72.20;;;;;;5072724;28;20100;-65
2021/04/25 06:57:49;;;;;;;23.55;9.52;;;8.60;72.50;;;;;;5070471;28;20090;-65
2021/04/25 07:00:17;;;;;;;19.38;9.60;;;8.80;71.00;;;;;;5053302;28;20040;-64
2021/04/25 07:02:43;;;;;;;16.85;8.95;;;8.80;70.50;;;;;;5057547;28;20505;-68
2021/04/25 07:05:10;;;;;;;20.15;9.98;;;8.90;70.80;;;;;;5058788;28;20043;-73
2021/04/25 07:07:36;;;;;;;15.13;9.27;;;9.10;70.10;;;;;;5052291;28;20037;-68
2021/04/25 07:10:04;;;;;;;19.95;9.52;;;9.10;69.80;;;;;;5068154;28;20046;-69
2021/04/25 07:12:29;;;;;;;17.30;9.00;;;9.10;70.40;;;;;;5058715;28;20528;-70
2021/04/25 07:14:56;;;;;;;16.92;9.75;;;9.20;70.30;;;;;;5060387;28;20029;-67
2021/04/25 07:17:23;;;;;;;20.30;9.63;;;9.30;69.50;;;;;;5061597;28;20040;-69
2021/04/25 07:19:49;;;;;;;15.20;10.60;;;9.40;68.90;;;;;;5059703;28;20035;-82
2021/04/25 07:22:15;;;;;;;19.20;10.45;;;9.50;69.10;;;;;;5064292;28;20088;-71
2021/04/25 07:24:41;;;;;;;17.50;9.70;;;9.60;68.40;;;;;;5061128;28;20025;-66
2021/04/25 07:27:06;;;;;;;16.38;10.38;;;9.60;67.90;;;;;;5060885;28;20043;-65
2021/04/25 07:29:33;;;;;;;17.77;10.38;;;9.70;68.00;;;;;;5057856;28;20040;-66
2021/04/25 07:31:58;;;;;;;16.15;10.43;;;9.80;68.60;;;;;;5057940;28;20024;-63
2021/04/25 07:34:25;;;;;;;17.30;10.80;;;9.90;67.60;;;;;;5059936;28;20035;-67
2021/04/25 07:36:52;;;;;;;15.77;10.68;;;9.90;67.20;;;;;;5057886;28;20104;-66
2021/04/25 07:39:18;;;;;;;22.45;11.05;;;10.00;67.00;;;;;;5060786;28;20024;-65
2021/04/25 07:41:45;;;;;;;21.60;11.68;;;10.10;66.50;;;;;;5056199;28;20021;-66
2021/04/25 07:44:11;;;;;;;18.23;12.02;;;10.10;66.50;;;;;;5060143;28;20044;-66
2021/04/25 07:46:38;;;;;;;15.65;10.23;;;10.20;66.20;;;;;;5060959;28;20035;-64
2021/04/25 07:49:04;;;;;;;22.63;12.02;;;10.30;65.80;;;;;;5062564;28;20043;-61
2021/04/25 07:51:30;;;;;;;22.55;11.93;;;10.30;65.60;;;;;;5056425;28;20037;-65
2021/04/25 07:53:59;;;;;;;17.98;10.82;;;10.20;65.30;;;;;;5059108;28;20028;-61
2021/04/25 07:56:26;;;;;;;20.52;10.73;;;10.30;65.50;;;;;;5063941;28;20506;-65
2021/04/25 07:58:52;;;;;;;18.50;10.95;;;10.40;65.20;;;;;;5059983;28;20115;-65
2021/04/25 08:01:18;;;;;;;21.75;11.05;;;10.40;65.20;;;;;;5067031;28;20025;-60
2021/04/25 08:03:44;;;;;;;18.88;10.65;;;10.50;65.00;;;;;;5070713;28;20027;-63
2021/04/25 08:06:10;;;;;;;21.58;10.88;;;10.50;65.20;;;;;;5057718;28;20025;-65
2021/04/25 08:08:36;;;;;;;19.27;12.07;;;10.60;65.40;;;;;;5055773;28;20024;-62
2021/04/25 08:11:02;;;;;;;21.58;11.80;;;10.80;64.00;;;;;;5057515;28;20474;-65
2021/04/25 08:13:31;;;;;;;18.98;11.48;;;11.00;64.20;;;;;;5059104;28;20066;-65
2021/04/25 08:15:57;;;;;;;17.17;11.07;;;11.00;63.00;;;;;;5061075;28;20478;-62
2021/04/25 08:18:23;;;;;;;19.50;12.00;;;11.10;62.90;;;;;;5059964;28;20086;-63
2021/04/25 08:20:49;;;;;;;19.55;11.88;;;11.20;61.90;;;;;;5057399;28;20043;-65
2021/04/25 08:23:16;;;;;;;18.45;10.98;;;11.20;62.20;;;;;;5058357;28;20032;-64
2021/04/25 08:25:42;;;;;;;19.33;12.05;;;11.10;62.60;;;;;;5058590;28;20021;-64
2021/04/25 08:28:08;;;;;;;19.48;12.10;;;11.20;63.60;;;;;;5055836;28;20494;-63
2021/04/25 08:30:35;;;;;;;18.90;11.50;;;11.30;62.60;;;;;;5057312;28;20044;-65
2021/04/25 08:33:01;;;;;;;21.75;12.60;;;11.20;62.30;;;;;;5059939;28;20032;-65
2021/04/25 08:35:28;;;;;;;20.20;12.63;;;11.30;62.20;;;;;;5059908;28;20043;-66
2021/04/25 08:37:53;;;;;;;20.30;11.23;;;11.30;62.30;;;;;;5058337;28;20039;-63
2021/04/25 08:40:21;;;;;;;20.30;11.50;;;11.40;62.40;;;;;;5057026;28;20044;-67
2021/04/25 08:42:47;;;;;;;23.05;12.05;;;11.50;62.00;;;;;;5057197;28;20020;-65
2021/04/25 08:45:14;;;;;;;18.80;11.30;;;11.50;61.80;;;;;;5059214;28;20082;-61
2021/04/25 08:47:58;;;;;;;22.77;13.25;;;11.60;61.70;;;;;;5058437;28;20040;-64
2021/04/25 08:50:28;;;;;;;25.50;12.30;;;11.80;61.20;;;;;;5055546;28;20029;-64
2021/04/25 08:52:55;;;;;;;20.92;11.82;;;11.90;61.00;;;;;;5059758;28;20039;-63
2021/04/25 08:55:21;;;;;;;18.52;11.25;;;11.90;60.90;;;;;;5060861;28;20373;-66
2021/04/25 08:57:48;;;;;;;18.73;12.10;;;12.00;60.20;;;;;;5054206;28;20178;-64
2021/04/25 09:00:14;;;;;;;22.75;12.52;;;12.00;60.90;;;;;;5055755;28;20029;-63
2021/04/25 09:02:40;;;;;;;22.27;13.02;;;12.00;60.50;;;;;;5058497;28;20029;-63
2021/04/25 09:05:06;;;;;;;17.55;11.27;;;12.20;61.00;;;;;;5060830;28;20477;-65
2021/04/25 09:07:32;;;;;;;18.60;12.00;;;12.20;59.70;;;;;;5058593;28;20470;-65
2021/04/25 09:10:06;;;;;;;21.70;12.10;;;12.40;60.50;;;;;;5056055;28;20108;-65
2021/04/25 09:12:37;;;;;;;21.08;11.88;;;12.50;58.30;;;;;;5058448;28;20048;-64
2021/04/25 09:15:12;;;;;;;16.75;11.32;;;12.50;58.70;;;;;;5059271;28;20463;-64
2021/04/25 09:17:57;;;;;;;22.15;11.57;;;12.60;59.00;;;;;;5062997;28;20039;-63
2021/04/25 09:20:39;;;;;;;18.55;11.25;;;12.70;56.80;;;;;;5062368;28;20043;-65
2021/04/25 09:23:11;;;;;;;17.20;10.75;;;12.70;56.80;;;;;;5063434;28;20029;-64
2021/04/25 09:25:37;;;;;;;17.52;11.00;;;12.80;56.90;;;;;;5061341;28;20109;-65
2021/04/25 09:28:14;;;;;;;19.40;10.82;;;12.80;56.00;;;;;;5063970;28;20029;-65
2021/04/25 09:30:52;;;;;;;14.48;9.65;;;12.90;56.30;;;;;;5062635;28;20036;-65
2021/04/25 09:33:18;;;;;;;16.23;9.82;;;13.00;54.00;;;;;;5062432;28;20024;-65
2021/04/25 09:35:43;;;;;;;13.20;9.40;;;12.90;54.70;;;;;;5063432;28;20374;-65
2021/04/25 09:38:11;;;;;;;16.90;9.10;;;12.90;54.70;;;;;;5066906;28;20397;-66
2021/04/25 09:40:45;;;;;;;14.80;8.40;;;13.10;54.40;;;;;;5073527;28;20056;-61
2021/04/25 09:43:13;;;;;;;17.27;9.25;;;13.40;54.70;;;;;;5057465;28;20017;-65
2021/04/25 09:45:48;;;;;;;13.00;7.95;;;13.50;52.80;;;;;;5073113;28;20024;-67
2021/04/25 09:48:22;;;;;;;14.93;9.20;;;13.60;51.70;;;;;;5056928;28;20041;-67
2021/04/25 09:51:13;;;;;;;18.23;9.23;;;13.60;51.70;;;;;;5067261;28;20028;-65
2021/04/25 09:53:49;;;;;;;14.70;9.02;;;13.70;52.60;;;;;;5073162;28;20028;-65
2021/04/25 09:56:19;;;;;;;14.32;9.10;;;13.80;54.60;;;;;;5065103;28;20028;-64
2021/04/25 09:59:00;;;;;;;14.38;9.85;;;14.00;52.70;;;;;;5068425;28;20041;-65
2021/04/25 10:01:31;;;;;;;15.60;8.70;;;14.10;52.30;;;;;;5055528;28;20439;-64
2021/04/25 10:03:59;;;;;;;11.82;7.70;;;14.30;51.20;;;;;;5074040;28;20033;-66
2021/04/25 10:06:25;;;;;;;11.73;7.53;;;14.30;48.70;;;;;;5074098;28;20051;-65
2021/04/25 10:08:52;;;;;;;13.70;9.27;;;14.40;51.30;;;;;;5061277;28;20039;-65
2021/04/25 10:11:19;;;;;;;14.73;8.68;;;14.30;49.30;;;;;;5060646;28;20024;-63
2021/04/25 10:13:47;;;;;;;16.95;9.45;;;14.40;50.00;;;;;;5064162;28;20036;-70
2021/04/25 10:16:14;;;;;;;16.23;9.55;;;14.10;51.00;;;;;;5063730;28;20029;-67
2021/04/25 10:18:40;;;;;;;13.75;9.00;;;14.30;51.60;;;;;;5067587;28;20043;-64
2021/04/25 10:21:06;;;;;;;14.75;8.88;;;14.40;51.20;;;;;;5062642;28;20385;-65
2021/04/25 10:23:32;;;;;;;12.25;8.73;;;14.50;51.00;;;;;;5056629;28;20028;-73
2021/04/25 10:25:58;;;;;;;16.33;9.38;;;14.80;50.70;;;;;;5057553;28;20116;-69
2021/04/25 10:28:35;;;;;;;17.10;9.73;;;14.90;50.30;;;;;;5069095;28;20103;-68
2021/04/25 10:31:03;;;;;;;11.95;8.80;;;14.70;49.90;;;;;;5061635;28;20094;-67
2021/04/25 10:33:51;;;;;;;13.10;8.50;;;14.50;49.40;;;;;;5062742;28;20041;-74
2021/04/25 10:36:17;;;;;;;12.20;8.10;;;14.60;49.40;;;;;;5053831;28;20116;-64
2021/04/25 10:38:43;;;;;;;14.20;8.00;;;14.50;49.50;;;;;;5054721;28;20107;-64
2021/04/25 10:41:26;;;;;;;13.70;7.20;;;14.60;49.50;;;;;;5073073;28;20029;-63
2021/04/25 10:44:10;;;;;;;11.75;7.70;;;14.80;49.20;;;;;;5060174;28;20305;-61
2021/04/25 10:46:57;;;;;;;10.60;7.07;;;15.00;47.40;;;;;;5063049;28;20082;-64
2021/04/25 10:49:37;;;;;;;14.60;6.95;;;15.10;46.50;;;;;;5053812;28;20068;-66
2021/04/25 10:52:22;;;;;;;12.00;7.88;;;15.20;47.20;;;;;;5060548;28;20448;-63
2021/04/25 10:55:24;;;;;;;12.05;7.35;;;15.30;46.70;;;;;;5051069;28;20086;-65
2021/04/25 10:57:56;;;;;;;12.52;6.75;;;15.40;45.20;;;;;;5050573;28;20049;-62
2021/04/25 11:00:31;;;;;;;10.50;6.25;;;15.50;44.30;;;;;;5051486;28;20064;-65
2021/04/25 11:03:05;;;;;;;8.43;5.85;;;15.60;45.30;;;;;;5051731;28;20147;-65
2021/04/25 11:05:42;;;;;;;6.95;5.60;;;15.80;40.70;;;;;;5059107;28;20052;-69
2021/04/25 11:08:15;;;;;;;12.32;6.72;;;15.90;42.70;;;;;;5055480;28;20123;-68
2021/04/25 11:10:56;;;;;;;11.98;6.35;;;16.00;45.10;;;;;;5051326;28;20044;-65
2021/04/25 11:13:46;;;;;;;8.80;6.25;;;16.10;45.20;;;;;;5056159;28;20458;-62
2021/04/25 11:16:21;;;;;;;10.55;6.18;;;16.30;44.60;;;;;;5058752;28;20429;-64
2021/04/25 11:19:09;;;;;;;11.65;6.43;;;16.40;45.10;;;;;;5058549;28;20454;-63
2021/04/25 11:21:56;;;;;;;12.68;6.97;;;16.60;44.40;;;;;;5056087;28;20033;-66
2021/04/25 11:24:21;;;;;;;9.82;6.15;;;16.90;43.60;;;;;;5070704;28;20029;-64
2021/04/25 11:26:59;;;;;;;10.45;6.25;;;16.90;44.10;;;;;;5070025;28;20029;-63
2021/04/25 11:29:28;;;;;;;7.35;5.07;;;17.10;41.00;;;;;;5051825;28;20036;-66
2021/04/25 11:31:59;;;;;;;7.55;4.47;;;17.10;40.90;;;;;;5051309;28;20040;-63
2021/04/25 11:34:33;;;;;;;8.45;5.63;;;17.10;41.10;;;;;;5060994;28;20033;-64
2021/04/25 11:37:06;;;;;;;10.25;5.38;;;17.00;40.90;;;;;;5051366;28;20462;-66
2021/04/25 11:39:45;;;;;;;11.35;5.70;;;17.00;40.50;;;;;;5049889;28;20112;-68
2021/04/25 11:42:13;;;;;;;9.77;5.93;;;17.00;40.40;;;;;;5050523;28;20037;-65
2021/04/25 11:44:42;;;;;;;8.15;4.80;;;17.00;40.30;;;;;;5050391;28;20021;-66
2021/04/25 11:47:13;;;;;;;7.97;5.10;;;17.10;40.40;;;;;;5056292;28;20024;-65
2021/04/25 11:49:40;;;;;;;9.07;4.82;;;17.20;39.40;;;;;;5050648;28;20059;-63
2021/04/25 11:52:27;;;;;;;7.43;4.20;;;17.30;39.70;;;;;;5050866;28;20037;-67
2021/04/25 11:55:01;;;;;;;7.93;4.80;;;17.50;39.10;;;;;;5062215;28;20039;-71
2021/04/25 11:57:32;;;;;;;8.88;4.50;;;17.90;38.00;;;;;;5070530;28;20359;-67
2021/04/25 12:00:05;;;;;;;;;;;17.90;36.80;;;;;;5062886;28;20106;-69
2021/04/25 12:02:53;;;;;;;6.55;3.95;;;17.80;37.80;;;;;;5050172;28;19943;-67
2021/04/25 12:05:34;;;;;;;6.57;4.18;;;17.90;37.10;;;;;;5050691;28;20477;-64
2021/04/25 12:08:02;;;;;;;6.68;4.00;;;18.00;36.70;;;;;;5050898;28;20060;-64
2021/04/25 12:10:37;;;;;;;9.15;4.78;;;18.10;36.40;;;;;;5050293;28;20099;-66
2021/04/25 12:13:17;;;;;;;5.82;4.13;;;18.10;36.10;;;;;;5050607;28;20091;-65
2021/04/25 12:15:52;;;;;;;7.10;4.13;;;18.00;35.50;;;;;;5050352;28;20025;-64
2021/04/25 12:18:32;;;;;;;6.47;4.55;;;18.20;37.40;;;;;;5049840;28;20052;-63
2021/04/25 12:21:00;;;;;;;;;;;18.40;35.90;;;;;;5050481;28;20029;-62
2021/04/25 12:23:31;;;;;;;9.05;4.13;;;18.60;36.00;;;;;;5064344;28;19908;-65
2021/04/25 12:25:57;;;;;;;6.85;4.40;;;18.70;34.70;;;;;;5051530;28;20433;-64
2021/04/25 12:28:41;;;;;;;7.57;3.75;;;18.50;34.70;;;;;;5050198;28;20078;-62
2021/04/25 12:31:07;;;;;;;6.80;3.58;;;18.50;34.60;;;;;;5050400;28;20028;-64
2021/04/25 12:33:41;;;;;;;7.00;3.38;;;18.40;34.50;;;;;;5050093;28;20032;-64
2021/04/25 12:36:09;;;;;;;7.82;3.97;;;18.30;35.30;;;;;;5050016;28;20440;-63
2021/04/25 12:38:37;;;;;;;8.40;3.55;;;18.50;33.90;;;;;;5067875;28;20101;-66
2021/04/25 12:41:14;;;;;;;8.05;3.60;;;18.60;33.60;;;;;;5059298;28;20375;-64
2021/04/25 12:43:46;;;;;;;7.38;3.53;;;19.20;33.00;;;;;;5070700;28;20029;-67
2021/04/25 12:46:17;;;;;;;7.93;3.60;;;19.30;33.30;;;;;;5069293;28;20028;-74
2021/04/25 12:48:46;;;;;;;5.75;3.35;;;19.40;33.20;;;;;;5050859;28;20021;-73
2021/04/25 12:51:24;;;;;;;7.70;3.15;;;19.60;33.10;;;;;;5051642;28;20029;-73